aviador You're here:

KELN Decoded Metar

ELLENSBURG in WA, USA
Report Time2017-05-28 23:53:00
UTC Time2017-05-29 00:03:01
Flight Rules vfr VFR
Wind090° at 05 kt
W.Decomp.*RWY 07: 5.0 kt HW 0.3 kt RCW
RWY 11: 4.0 kt HW 2.9 kt LCW
W.Rank090° ranks 7
Current wind is below 090° avg. (5.0)
Visibility9999 m
Phenomena:N/A
Clouds:N/A
Expected CloudBase > 10,400 ft AGL from Temp-Dew spread
CeilingNone
Temp32°C (ISA +20)
Dew Point06°C (20% RH)
Heat Index30.0°C
AAT29.3°C
QNH1018 hPa
Density Alt3,983 ft
Elevation1,703 ft
Report Wrong Elevation
Raw Report
KELN 282353Z AUTO 09005KT 10SM CLR 32/06 A3005 RMK AO2 SLP167
T03170061 10322 20244 57017=

Extra information for KELN:More info

Metar Taf Metar & Taf Last 4 Metars F.Rules Stats Wind Profile Meteogram Temp Stats Airport Information Weather charts Add Link Nearby VenuesMetar ALERT Operation Metar Decoded Social comments

AIRNAV info for KELN